createdAt,value
2022-11-07T00:00:44.900Z,101558.69
2022-11-07T00:03:18.349Z,101562.82
2022-11-07T00:05:50.119Z,101556.77
2022-11-07T00:08:19.110Z,101551.55
2022-11-07T00:10:47.187Z,101548.10
2022-11-07T00:13:17.656Z,101543.63
2022-11-07T00:15:45.793Z,101546.97
2022-11-07T00:18:16.749Z,101553.70
2022-11-07T00:20:44.977Z,101560.20
2022-11-07T00:23:13.512Z,101561.67
2022-11-07T00:25:47.733Z,101560.59
2022-11-07T00:28:16.542Z,101559.48
2022-11-07T00:30:45.182Z,101556.59
2022-11-07T00:33:13.325Z,101554.41
2022-11-07T00:35:55.147Z,101556.34
2022-11-07T00:38:24.476Z,101557.83
2022-11-07T00:41:03.330Z,101562.93
2022-11-07T00:43:32.376Z,101561.60
2022-11-07T00:48:52.243Z,101557.84
2022-11-07T00:54:09.250Z,101552.89
2022-11-07T00:56:37.212Z,101555.52
2022-11-07T00:59:05.663Z,101558.92
2022-11-07T01:01:35.411Z,101562.23
2022-11-07T01:04:21.815Z,101561.29
2022-11-07T01:06:50.105Z,101558.77
2022-11-07T01:09:21.199Z,101557.13
2022-11-07T01:11:52.333Z,101558.56
2022-11-07T01:14:23.661Z,101559.67
2022-11-07T01:16:52.552Z,101562.01
2022-11-07T01:19:21.009Z,101562.13
2022-11-07T01:21:48.661Z,101566.65
2022-11-07T01:24:24.212Z,101569.10
2022-11-07T01:26:55.448Z,101563.84
2022-11-07T01:29:23.992Z,101563.09
2022-11-07T01:31:53.865Z,101563.69
2022-11-07T01:34:21.674Z,101564.48
2022-11-07T01:36:49.552Z,101564.75
2022-11-07T01:39:18.971Z,101569.96
2022-11-07T01:41:46.934Z,101568.14
2022-11-07T01:44:14.946Z,101576.55
2022-11-07T01:46:48.236Z,101576.49
2022-11-07T01:49:24.204Z,101575.33
2022-11-07T01:52:03.284Z,101575.05
2022-11-07T01:54:36.304Z,101568.83
2022-11-07T01:57:09.756Z,101568.23
2022-11-07T01:59:39.751Z,101570.03
2022-11-07T02:02:08.632Z,101570.99
2022-11-07T02:04:36.998Z,101572.65
2022-11-07T02:07:14.660Z,101573.16
2022-11-07T02:09:49.140Z,101571.31
2022-11-07T02:12:18.855Z,101569.45
2022-11-07T02:14:47.095Z,101564.89
2022-11-07T02:17:16.779Z,101566.91
2022-11-07T02:19:54.424Z,101564.79
2022-11-07T02:22:47.313Z,101573.88
2022-11-07T02:25:18.413Z,101578.20
2022-11-07T02:27:49.002Z,101574.64
2022-11-07T02:30:24.213Z,101569.95
2022-11-07T02:32:51.938Z,101568.52
2022-11-07T02:35:44.520Z,101570.58
2022-11-07T02:38:18.582Z,101572.30
2022-11-07T02:41:11.602Z,101572.17
2022-11-07T02:43:48.520Z,101575.52
2022-11-07T02:46:20.568Z,101577.11
2022-11-07T02:48:51.321Z,101580.68
2022-11-07T02:51:18.918Z,101580.26
2022-11-07T02:53:47.090Z,101577.92
2022-11-07T02:56:14.651Z,101573.88
2022-11-07T02:58:42.735Z,101572.29
2022-11-07T03:01:10.399Z,101575.69
2022-11-07T03:03:41.628Z,101575.20
2022-11-07T03:06:13.267Z,101572.44
2022-11-07T03:08:41.839Z,101577.76
2022-11-07T03:11:12.010Z,101580.52
2022-11-07T03:13:40.720Z,101585.90
2022-11-07T03:16:12.056Z,101584.80
2022-11-07T03:18:42.503Z,101585.01
2022-11-07T03:21:10.421Z,101587.30
2022-11-07T03:23:38.723Z,101585.85
2022-11-07T03:26:10.328Z,101590.48
2022-11-07T03:28:38.075Z,101590.65
2022-11-07T03:31:06.595Z,101596.02
2022-11-07T03:33:34.465Z,101598.07
2022-11-07T03:36:02.439Z,101601.73
2022-11-07T03:38:29.998Z,101600.58
2022-11-07T03:40:57.942Z,101596.83
2022-11-07T03:43:26.876Z,101597.59
2022-11-07T03:45:57.061Z,101595.30
2022-11-07T03:48:24.892Z,101594.59
2022-11-07T03:50:52.595Z,101601.83
2022-11-07T03:53:25.365Z,101608.89
2022-11-07T03:55:55.563Z,101610.33
2022-11-07T03:58:24.632Z,101607.92
2022-11-07T04:00:53.003Z,101607.70
2022-11-07T04:03:20.740Z,101604.69
2022-11-07T04:05:48.455Z,101607.27
2022-11-07T04:08:17.353Z,101610.70
2022-11-07T04:10:45.588Z,101616.80
2022-11-07T04:13:35.308Z,101622.17
2022-11-07T04:16:22.116Z,101629.84
2022-11-07T04:18:49.962Z,101628.08
2022-11-07T04:21:17.543Z,101628.23
2022-11-07T04:23:45.693Z,101627.25
2022-11-07T04:26:33.733Z,101629.31
2022-11-07T04:29:01.168Z,101630.75
2022-11-07T04:31:29.048Z,101631.18
2022-11-07T04:33:56.883Z,101632.88
2022-11-07T04:36:24.484Z,101640.65
2022-11-07T04:38:52.301Z,101641.80
2022-11-07T04:41:22.116Z,101640.58
2022-11-07T04:43:50.943Z,101646.53
2022-11-07T04:46:18.894Z,101646.97
2022-11-07T04:48:46.673Z,101649.45
2022-11-07T04:51:21.176Z,101649.94
2022-11-07T04:53:52.347Z,101654.02
2022-11-07T04:56:20.011Z,101653.21
2022-11-07T04:58:47.493Z,101651.61
2022-11-07T05:01:18.749Z,101657.52
2022-11-07T05:03:46.019Z,101656.52
2022-11-07T05:06:15.175Z,101658.66
2022-11-07T05:08:42.665Z,101658.55
2022-11-07T05:11:13.624Z,101662.01
2022-11-07T05:13:41.513Z,101665.09
2022-11-07T05:16:17.635Z,101671.48
2022-11-07T05:18:47.472Z,101669.41
2022-11-07T05:21:16.773Z,101667.42
2022-11-07T05:23:49.674Z,101666.30
2022-11-07T05:26:18.732Z,101666.55
2022-11-07T05:28:46.708Z,101667.41
2022-11-07T05:31:19.059Z,101668.73
2022-11-07T05:33:46.838Z,101668.30
2022-11-07T05:36:17.473Z,101669.90
2022-11-07T05:38:47.916Z,101674.63
2022-11-07T05:41:17.445Z,101682.54
2022-11-07T05:43:45.362Z,101683.44
2022-11-07T05:46:13.641Z,101683.44
2022-11-07T05:48:41.428Z,101684.07
2022-11-07T05:51:09.902Z,101690.70
2022-11-07T05:53:37.701Z,101694.65
2022-11-07T05:56:05.404Z,101694.45
2022-11-07T05:58:33.173Z,101696.91
2022-11-07T06:01:05.345Z,101701.48
2022-11-07T06:03:34.292Z,101703.13
2022-11-07T06:06:02.209Z,101700.27
2022-11-07T06:08:33.169Z,101704.42
2022-11-07T06:11:08.208Z,101704.48
2022-11-07T06:13:37.710Z,101705.31
2022-11-07T06:16:07.794Z,101708.88
2022-11-07T06:19:13.523Z,101710.58
2022-11-07T06:22:45.225Z,101713.55
2022-11-07T06:41:15.940Z,101726.44
2022-11-07T06:43:44.478Z,101731.48
2022-11-07T06:46:14.415Z,101730.84
2022-11-07T06:48:42.290Z,101736.01
2022-11-07T06:51:11.574Z,101736.38
2022-11-07T06:53:39.222Z,101737.61
2022-11-07T06:56:09.205Z,101744.39
2022-11-07T06:58:37.345Z,101742.04
2022-11-07T07:01:08.854Z,101745.71
2022-11-07T07:03:36.649Z,101749.45
2022-11-07T07:06:06.520Z,101753.98
2022-11-07T07:08:35.828Z,101757.70
2022-11-07T07:11:06.217Z,101763.70
2022-11-07T07:13:34.243Z,101758.58
2022-11-07T07:16:02.177Z,101762.52
2022-11-07T07:18:30.145Z,101760.02
2022-11-07T07:21:12.242Z,101761.55
2022-11-07T07:23:40.088Z,101768.52
2022-11-07T07:26:14.678Z,101768.39
2022-11-07T07:28:42.983Z,101769.55
2022-11-07T07:31:16.401Z,101770.08
2022-11-07T07:33:45.766Z,101769.80
2022-11-07T07:36:20.188Z,101772.40
2022-11-07T07:38:49.186Z,101773.30
2022-11-07T07:41:17.331Z,101775.23
2022-11-07T07:43:45.247Z,101776.96
2022-11-07T07:46:19.608Z,101778.92
2022-11-07T07:48:47.040Z,101782.23
2022-11-07T07:51:14.731Z,101782.20
2022-11-07T07:53:42.200Z,101781.53
2022-11-07T07:56:09.490Z,101783.64
2022-11-07T07:58:37.114Z,101786.76
2022-11-07T08:01:10.750Z,101789.30
2022-11-07T08:03:59.728Z,101790.85
2022-11-07T08:06:26.261Z,101791.38
2022-11-07T08:08:53.492Z,101794.48
2022-11-07T08:11:20.997Z,101791.08
2022-11-07T08:13:48.475Z,101797.23
2022-11-07T08:16:15.693Z,101798.98
2022-11-07T08:18:43.335Z,101802.55
2022-11-07T08:21:11.095Z,101803.73
2022-11-07T08:23:38.831Z,101799.75
2022-11-07T08:26:07.461Z,101803.58
2022-11-07T08:28:37.575Z,101807.55
2022-11-07T08:31:06.841Z,101807.66
2022-11-07T08:33:34.750Z,101806.33
2022-11-07T08:36:03.881Z,101808.44
2022-11-07T08:38:33.126Z,101812.33
2022-11-07T08:41:00.906Z,101821.02
2022-11-07T08:43:28.388Z,101824.34
2022-11-07T08:45:56.474Z,101828.48
2022-11-07T08:48:25.561Z,101831.95
2022-11-07T08:51:03.686Z,101838.19
2022-11-07T08:53:31.555Z,101837.73
2022-11-07T08:56:07.502Z,101844.59
2022-11-07T08:58:35.712Z,101850.39
2022-11-07T09:01:07.816Z,101847.20
2022-11-07T09:03:48.622Z,101848.95
2022-11-07T09:06:18.777Z,101848.27
2022-11-07T09:08:47.438Z,101849.42
2022-11-07T09:11:19.625Z,101850.17
2022-11-07T09:13:48.687Z,101854.35
2022-11-07T09:16:19.447Z,101855.52
2022-11-07T09:18:48.947Z,101858.11
2022-11-07T09:21:22.187Z,101856.88
2022-11-07T09:23:50.971Z,101855.65
2022-11-07T09:26:19.037Z,101857.41
2022-11-07T09:28:51.078Z,101857.73
2022-11-07T09:31:21.058Z,101857.95
2022-11-07T09:33:48.731Z,101858.66
2022-11-07T09:36:19.449Z,101856.15
2022-11-07T09:38:48.567Z,101855.78
2022-11-07T09:41:56.664Z,101853.70
2022-11-07T09:44:37.658Z,101852.48
2022-11-07T09:47:17.406Z,101849.83
2022-11-07T09:49:47.659Z,101848.02
2022-11-07T09:52:39.033Z,101855.66
2022-11-07T09:55:24.313Z,101848.48
2022-11-07T09:57:59.427Z,101845.39
2022-11-07T10:00:32.270Z,101851.87
2022-11-07T10:03:02.599Z,101851.16
2022-11-07T10:05:46.316Z,101850.73
2022-11-07T10:08:28.452Z,101854.45
2022-11-07T10:11:01.008Z,101852.30
2022-11-07T10:13:47.085Z,101846.41
2022-11-07T10:16:36.014Z,101843.55
2022-11-07T10:19:10.613Z,101843.94
2022-11-07T10:21:51.001Z,101844.42
2022-11-07T10:24:53.176Z,101843.85
2022-11-07T10:27:23.166Z,101841.88
2022-11-07T10:29:54.041Z,101839.50
2022-11-07T10:32:41.184Z,101842.58
2022-11-07T10:35:31.510Z,101839.72
2022-11-07T10:38:01.405Z,101840.73
2022-11-07T10:40:36.935Z,101837.32
2022-11-07T10:43:13.814Z,101838.02
2022-11-07T10:45:42.175Z,101838.13
2022-11-07T10:48:14.642Z,101839.83
2022-11-07T10:50:52.680Z,101837.27
2022-11-07T10:53:25.055Z,101835.77
2022-11-07T10:55:57.552Z,101835.61
2022-11-07T10:58:43.660Z,101831.77
2022-11-07T11:01:15.464Z,101830.39
2022-11-07T11:03:50.312Z,101829.77
2022-11-07T11:06:34.796Z,101829.23
2022-11-07T11:09:15.750Z,101826.46
2022-11-07T11:11:51.192Z,101825.73
2022-11-07T11:14:21.408Z,101826.07
2022-11-07T11:16:56.841Z,101822.67
2022-11-07T11:19:30.503Z,101823.79
2022-11-07T11:22:02.223Z,101824.22
2022-11-07T11:24:34.528Z,101820.87
2022-11-07T11:27:24.013Z,101821.87
2022-11-07T11:30:02.901Z,101813.67
2022-11-07T11:32:43.867Z,101812.61
2022-11-07T11:35:42.265Z,101807.66
2022-11-07T11:38:29.947Z,101801.65
2022-11-07T11:41:10.944Z,101803.77
2022-11-07T11:43:57.785Z,101800.65
2022-11-07T11:46:38.152Z,101799.15
2022-11-07T11:49:12.651Z,101798.67
2022-11-07T12:06:20.017Z,101787.32
2022-11-07T12:09:51.964Z,101784.56
2022-11-07T12:12:36.892Z,101784.04
2022-11-07T12:15:37.759Z,101783.54
2022-11-07T12:18:22.550Z,101778.09
2022-11-07T12:21:08.029Z,101781.17
2022-11-07T12:23:52.863Z,101783.77
2022-11-07T12:26:35.609Z,101782.09
2022-11-07T12:29:51.714Z,101783.40
2022-11-07T12:32:50.333Z,101780.89
2022-11-07T12:35:41.741Z,101778.58
2022-11-07T12:38:48.538Z,101782.29
2022-11-07T12:41:48.752Z,101780.93
2022-11-07T12:44:41.543Z,101775.70
2022-11-07T12:47:35.443Z,101778.85
2022-11-07T12:50:41.705Z,101776.50
2022-11-07T12:53:50.984Z,101778.55
2022-11-07T12:56:35.550Z,101779.05
2022-11-07T12:59:33.141Z,101780.64
2022-11-07T13:02:25.952Z,101778.27
2022-11-07T13:05:24.115Z,101777.14
2022-11-07T13:08:12.418Z,101774.27
2022-11-07T13:11:04.292Z,101775.09
2022-11-07T13:13:54.401Z,101776.52
2022-11-07T13:17:16.359Z,101769.29
2022-11-07T13:20:34.700Z,101769.64
2022-11-07T13:23:19.648Z,101767.72
2022-11-07T13:26:20.280Z,101768.98
2022-11-07T13:29:12.197Z,101769.84
2022-11-07T13:31:47.721Z,101767.91
2022-11-07T13:34:23.171Z,101769.45
2022-11-07T13:36:59.762Z,101764.41
2022-11-07T13:39:35.566Z,101766.23
2022-11-07T13:42:12.875Z,101766.98
2022-11-07T13:44:57.814Z,101768.90
2022-11-07T13:47:42.020Z,101768.59
2022-11-07T13:50:28.216Z,101764.98
2022-11-07T13:53:08.941Z,101762.11
2022-11-07T13:56:04.731Z,101764.06
2022-11-07T14:01:54.080Z,101772.02
2022-11-07T14:04:44.511Z,101769.07
2022-11-07T14:07:39.136Z,101768.54
2022-11-07T14:10:31.695Z,101768.86
2022-11-07T14:13:40.872Z,101768.01
2022-11-07T14:16:27.314Z,101769.77
2022-11-07T14:19:09.437Z,101772.31
2022-11-07T14:21:45.921Z,101770.52
2022-11-07T14:24:35.640Z,101768.95
2022-11-07T14:27:14.972Z,101768.15
2022-11-07T14:29:59.874Z,101772.41
2022-11-07T14:32:39.514Z,101766.98
2022-11-07T14:35:24.983Z,101771.98
2022-11-07T14:38:17.966Z,101771.14
2022-11-07T14:40:59.167Z,101768.90
2022-11-07T14:43:35.215Z,101770.45
2022-11-07T14:46:27.936Z,101770.96
2022-11-07T14:49:04.681Z,101771.66
2022-11-07T14:51:57.113Z,101770.80
2022-11-07T14:54:41.264Z,101769.52
2022-11-07T14:57:20.947Z,101775.20
2022-11-07T15:00:01.443Z,101772.85
2022-11-07T15:02:51.800Z,101774.02
2022-11-07T15:05:50.122Z,101774.16
2022-11-07T15:08:40.762Z,101773.40
2022-11-07T15:12:01.805Z,101771.55
2022-11-07T15:14:46.480Z,101775.36
2022-11-07T15:17:26.646Z,101781.23
2022-11-07T15:20:07.396Z,101784.55
2022-11-07T15:22:48.071Z,101780.26
2022-11-07T15:25:40.086Z,101776.43
2022-11-07T15:28:58.088Z,101776.91
2022-11-07T15:31:44.380Z,101780.73
2022-11-07T15:34:33.942Z,101781.44
2022-11-07T15:37:24.643Z,101782.29
2022-11-07T15:40:04.550Z,101785.69
2022-11-07T15:42:38.006Z,101785.52
2022-11-07T15:45:14.216Z,101788.29
2022-11-07T15:47:47.014Z,101787.89
2022-11-07T15:50:27.610Z,101788.33
2022-11-07T15:52:58.740Z,101788.20
2022-11-07T15:55:33.357Z,101787.57
2022-11-07T15:58:05.227Z,101790.16
2022-11-07T16:00:35.887Z,101797.88
2022-11-07T16:06:30.836Z,101797.29
2022-11-07T16:08:58.818Z,101801.38
2022-11-07T16:11:25.770Z,101798.34
2022-11-07T16:13:59.246Z,101800.23
2022-11-07T16:16:34.224Z,101796.25
2022-11-07T16:19:01.791Z,101801.82
2022-11-07T16:21:28.862Z,101804.06
2022-11-07T16:23:55.848Z,101804.70
2022-11-07T16:26:30.233Z,101806.94
2022-11-07T16:28:57.219Z,101805.92
2022-11-07T16:31:24.228Z,101811.17
2022-11-07T16:33:53.463Z,101814.48
2022-11-07T16:36:24.142Z,101818.52
2022-11-07T16:38:51.978Z,101821.77
2022-11-07T16:41:22.713Z,101823.57
2022-11-07T16:43:49.968Z,101823.63
2022-11-07T16:46:19.825Z,101825.58
2022-11-07T16:48:49.158Z,101832.07
2022-11-07T16:51:18.602Z,101833.17
2022-11-07T16:53:45.611Z,101833.64
2022-11-07T16:56:29.871Z,101835.77
2022-11-07T16:58:57.440Z,101834.35
2022-11-07T17:01:26.103Z,101836.36
2022-11-07T17:03:53.871Z,101840.25
2022-11-07T17:06:31.192Z,101842.16
2022-11-07T17:09:06.113Z,101845.25
2022-11-07T17:11:35.848Z,101844.92
2022-11-07T17:14:02.832Z,101843.21
2022-11-07T17:16:34.917Z,101843.42
2022-11-07T17:19:02.826Z,101844.38
2022-11-07T17:21:32.663Z,101847.61
2022-11-07T17:24:01.370Z,101851.88
2022-11-07T17:26:31.463Z,101853.08
2022-11-07T17:28:59.854Z,101858.66
2022-11-07T17:31:27.168Z,101858.44
2022-11-07T17:33:54.561Z,101858.91
2022-11-07T17:36:37.135Z,101862.42
2022-11-07T17:39:11.346Z,101869.95
2022-11-07T17:41:40.306Z,101867.81
2022-11-07T17:44:07.515Z,101869.04
2022-11-07T17:46:36.048Z,101866.66
2022-11-07T17:49:07.313Z,101868.41
2022-11-07T17:51:38.019Z,101868.52
2022-11-07T17:54:05.750Z,101867.40
2022-11-07T17:59:18.762Z,101872.55
2022-11-07T18:01:46.112Z,101872.86
2022-11-07T18:04:14.175Z,101873.17
2022-11-07T18:06:43.314Z,101878.96
2022-11-07T18:09:14.599Z,101883.95
2022-11-07T18:11:41.654Z,101887.61
2022-11-07T18:14:12.118Z,101889.42
2022-11-07T18:16:39.526Z,101888.29
2022-11-07T18:19:06.904Z,101887.48
2022-11-07T18:21:33.999Z,101891.90
2022-11-07T18:24:01.309Z,101893.73
2022-11-07T18:26:34.989Z,101892.56
2022-11-07T18:29:04.915Z,101889.65
2022-11-07T18:31:32.214Z,101890.24
2022-11-07T18:34:05.731Z,101892.84
2022-11-07T18:36:38.467Z,101890.40
2022-11-07T18:39:17.725Z,101893.76
2022-11-07T18:41:45.447Z,101888.86
2022-11-07T18:44:12.781Z,101887.69
2022-11-07T18:46:40.751Z,101888.59
2022-11-07T18:49:07.853Z,101887.24
2022-11-07T18:51:35.921Z,101891.55
2022-11-07T18:54:05.008Z,101887.55
2022-11-07T18:56:32.199Z,101894.84
2022-11-07T18:58:59.444Z,101890.89
2022-11-07T19:01:30.933Z,101891.74
2022-11-07T19:04:00.419Z,101891.84
2022-11-07T19:06:29.150Z,101894.65
2022-11-07T19:08:56.458Z,101893.11
2022-11-07T19:11:28.895Z,101896.98
2022-11-07T19:13:59.540Z,101895.02
2022-11-07T19:16:26.802Z,101895.20
2022-11-07T19:18:53.942Z,101898.98
2022-11-07T19:21:23.607Z,101900.79
2022-11-07T19:23:51.084Z,101900.20
2022-11-07T19:26:21.345Z,101902.52
2022-11-07T19:28:49.049Z,101901.09
2022-11-07T19:31:16.344Z,101902.48
2022-11-07T19:33:43.969Z,101903.75
2022-11-07T19:36:16.672Z,101905.20
2022-11-07T19:38:44.415Z,101909.91
2022-11-07T19:41:13.049Z,101912.46
2022-11-07T19:43:42.673Z,101912.82
2022-11-07T19:46:15.922Z,101913.65
2022-11-07T19:48:44.298Z,101913.61
2022-11-07T19:51:20.927Z,101910.63
2022-11-07T19:53:56.532Z,101915.05
2022-11-07T19:56:26.449Z,101916.55
2022-11-07T19:58:54.549Z,101918.58
2022-11-07T20:01:31.661Z,101914.96
2022-11-07T20:04:01.391Z,101912.19
2022-11-07T20:06:32.744Z,101910.49
2022-11-07T20:09:08.441Z,101914.54
2022-11-07T20:11:36.163Z,101918.25
2022-11-07T20:14:04.162Z,101917.39
2022-11-07T20:16:33.175Z,101918.92
2022-11-07T20:19:01.254Z,101921.96
2022-11-07T20:21:29.244Z,101919.68
2022-11-07T20:23:58.159Z,101921.97
2022-11-07T20:26:27.216Z,101924.61
2022-11-07T20:28:54.395Z,101929.20
2022-11-07T20:31:33.010Z,101929.83
2022-11-07T20:34:02.132Z,101927.43
2022-11-07T20:36:31.430Z,101928.34
2022-11-07T20:39:01.181Z,101928.70
2022-11-07T20:41:28.517Z,101929.40
2022-11-07T20:44:05.915Z,101930.88
2022-11-07T20:46:36.644Z,101936.78
2022-11-07T20:49:05.982Z,101934.02
2022-11-07T20:51:33.515Z,101935.04
2022-11-07T20:54:00.528Z,101931.48
2022-11-07T20:56:29.255Z,101933.54
2022-11-07T20:58:58.190Z,101935.19
2022-11-07T21:01:37.501Z,101935.98
2022-11-07T21:04:06.877Z,101936.34
2022-11-07T21:06:34.398Z,101929.42
2022-11-07T21:09:01.448Z,101931.00
2022-11-07T21:11:30.666Z,101936.67
2022-11-07T21:13:58.568Z,101938.96
2022-11-07T21:16:27.014Z,101942.02
2022-11-07T21:18:55.744Z,101938.63
2022-11-07T21:21:25.437Z,101930.77
2022-11-07T21:23:52.850Z,101931.71
2022-11-07T21:26:24.578Z,101934.48
2022-11-07T21:28:51.549Z,101935.52
2022-11-07T21:31:24.173Z,101937.61
2022-11-07T21:33:51.908Z,101934.95
2022-11-07T21:36:23.041Z,101933.52
2022-11-07T21:38:50.838Z,101929.95
2022-11-07T21:41:17.945Z,101932.61
2022-11-07T21:43:45.047Z,101932.77
2022-11-07T21:46:19.656Z,101931.55
2022-11-07T21:48:47.331Z,101929.63
2022-11-07T21:51:19.816Z,101922.80
2022-11-07T21:53:47.773Z,101925.72
2022-11-07T21:56:25.805Z,101926.55
2022-11-07T21:58:56.525Z,101927.84
2022-11-07T22:01:24.021Z,101929.48
2022-11-07T22:04:09.848Z,101930.75
2022-11-07T22:06:43.912Z,101927.72
2022-11-07T22:09:15.029Z,101930.36
2022-11-07T22:11:42.448Z,101932.29
2022-11-07T22:14:13.837Z,101927.33
2022-11-07T22:16:40.971Z,101933.17
2022-11-07T22:19:12.264Z,101931.10
2022-11-07T22:21:41.641Z,101930.13
2022-11-07T22:24:09.502Z,101929.85
2022-11-07T22:26:37.640Z,101931.98
2022-11-07T22:29:05.401Z,101931.85
2022-11-07T22:31:33.744Z,101933.92
2022-11-07T22:34:01.929Z,101934.83
2022-11-07T22:36:30.093Z,101931.30
2022-11-07T22:38:58.788Z,101931.12
2022-11-07T22:41:27.452Z,101929.67
2022-11-07T22:43:54.808Z,101931.41
2022-11-07T22:46:25.190Z,101929.53
2022-11-07T22:48:53.238Z,101930.38
2022-11-07T22:51:26.113Z,101931.64
2022-11-07T22:53:59.088Z,101929.69
2022-11-07T22:56:26.741Z,101928.86
2022-11-07T22:58:53.967Z,101925.88
2022-11-07T23:01:24.031Z,101925.42
2022-11-07T23:03:53.472Z,101925.23
2022-11-07T23:06:21.449Z,101923.95
2022-11-07T23:08:49.653Z,101922.48
2022-11-07T23:11:52.852Z,101922.45
2022-11-07T23:14:08.258Z,101918.88
2022-11-07T23:16:37.871Z,101922.92
2022-11-07T23:19:08.400Z,101919.09
2022-11-07T23:21:36.159Z,101921.42
2022-11-07T23:24:04.083Z,101918.93
2022-11-07T23:26:34.439Z,101922.05
2022-11-07T23:29:16.443Z,101919.07
2022-11-07T23:31:45.809Z,101918.91
2022-11-07T23:34:13.904Z,101918.05
2022-11-07T23:36:44.245Z,101916.13
2022-11-07T23:39:18.378Z,101912.05
2022-11-07T23:41:45.889Z,101916.44
2022-11-07T23:44:14.180Z,101915.48
2022-11-07T23:47:00.535Z,101914.96
2022-11-07T23:49:46.136Z,101913.64
2022-11-07T23:52:13.485Z,101913.12
2022-11-07T23:54:59.205Z,101913.66
2022-11-07T23:57:26.363Z,101914.98
